Time;durP1;ratioP1;P1;durP2;ratioP2;P2;SDS_P1;SDS_P2;PMS_P1;PMS_P2;Temp;Humidity;BMP_temperature;BMP_pressure;BME280_temperature;BME280_humidity;BME280_pressure;Samples;Min_cycle;Max_cycle;Signal;HPM_P1;HPM_P2
2021/08/07 00:00:21;;;;;;;;;;;17.10;99.90;;;15.83;88.79;100164.88;3520841;39;102271;-40
2021/08/07 00:02:49;;;;;;;;;;;17.10;99.90;;;15.86;89.28;100160.78;3520793;39;102388;-40
2021/08/07 00:05:20;;;;;;;;;;;17.10;99.90;;;15.86;89.12;100164.34;3519943;39;102351;-40
2021/08/07 00:07:47;;;;;;;;;;;17.10;99.90;;;15.86;88.37;100167.09;3520314;39;102613;-40
2021/08/07 00:10:15;;;;;;;;;;;17.10;99.90;;;15.86;88.76;100158.84;3520437;39;102204;-40
2021/08/07 00:12:42;;;;;;;;;;;17.10;99.90;;;15.82;89.02;100165.97;3520713;39;102159;-40
2021/08/07 00:15:10;;;;;;;;;;;17.10;99.90;;;15.79;90.04;100158.25;3520156;40;102312;-40
2021/08/07 00:17:39;;;;;;;;;;;17.00;99.90;;;15.73;90.46;100162.06;3520449;39;102278;-40
2021/08/07 00:20:07;;;;;;;;;;;17.00;99.90;;;15.68;91.10;100158.19;3520358;40;103142;-40
2021/08/07 00:22:35;;;;;;;;;;;17.00;99.90;;;15.65;91.04;100149.63;3520287;39;102522;-40
2021/08/07 00:25:03;;;;;;;;;;;17.00;99.90;;;15.63;91.72;100149.06;3520294;40;103077;-40
2021/08/07 00:27:31;;;;;;;;;;;16.90;99.90;;;15.60;91.80;100153.13;3520575;40;102835;-41
2021/08/07 00:29:58;;;;;;;;;;;16.90;99.90;;;15.58;92.08;100149.03;3520482;39;102099;-40
2021/08/07 00:32:25;;;;;;;;;;;16.90;99.90;;;15.57;92.26;100158.34;3520005;39;103660;-41
2021/08/07 00:34:53;;;;;;;;;;;16.80;99.90;;;15.55;92.55;100161.34;3520000;39;102325;-40
2021/08/07 00:37:20;;;;;;;;;;;16.80;99.90;;;15.50;92.69;100164.06;3520099;39;102582;-40
2021/08/07 00:39:56;;;;;;;;;;;16.80;99.90;;;15.48;92.63;100160.75;3519232;40;102417;-40
2021/08/07 00:42:24;;;;;;;;;;;16.80;99.90;;;15.55;92.01;100155.84;3519503;40;102349;-40
2021/08/07 00:44:52;;;;;;;;;;;16.80;99.90;;;15.49;92.28;100154.16;3519048;40;102317;-40
2021/08/07 00:47:21;;;;;;;;;;;16.80;99.90;;;15.48;92.79;100144.25;3519390;40;102220;-40
2021/08/07 00:49:49;;;;;;;;;;;16.70;99.90;;;15.47;93.20;100140.66;3520042;40;104051;-40
2021/08/07 00:52:18;;;;;;;;;;;16.70;99.90;;;15.47;93.32;100131.59;3519347;40;102803;-40
2021/08/07 00:54:49;;;;;;;;;;;16.70;99.90;;;15.43;93.45;100119.50;3518891;40;102200;-40
2021/08/07 00:57:23;;;;;;;;;;;16.70;99.90;;;15.41;93.91;100116.97;3519297;40;102316;-40
2021/08/07 00:59:51;;;;;;;;;;;16.70;99.90;;;15.44;93.82;100115.66;3519161;40;103955;-40
2021/08/07 01:02:20;;;;;;;;;;;16.70;99.90;;;15.40;93.84;100115.31;3519871;39;103581;-40
2021/08/07 01:05:03;;;;;;;;;;;16.70;99.90;;;15.37;94.26;100121.34;3520224;39;103102;-40
2021/08/07 01:07:55;;;;;;;;;;;16.60;99.90;;;15.34;94.64;100121.88;3519646;40;103040;-40
2021/08/07 01:10:40;;;;;;;;;;;16.60;99.90;;;15.28;94.72;100123.75;3519097;40;105318;-40
2021/08/07 01:13:22;;;;;;;;;;;16.60;99.90;;;15.22;95.15;100119.31;3519320;40;102420;-40
2021/08/07 01:16:07;;;;;;;;;;;16.50;99.90;;;15.23;94.97;100124.53;3519077;40;104056;-40
2021/08/07 01:18:39;;;;;;;;;;;16.50;99.90;;;15.22;94.82;100113.81;3520068;40;102464;-40
2021/08/07 01:21:12;;;;;;;;;;;16.50;99.90;;;15.17;95.36;100116.50;3520306;40;102141;-41
2021/08/07 01:24:04;;;;;;;;;;;16.50;99.90;;;15.18;95.56;100129.16;3520226;40;102137;-40
2021/08/07 01:26:51;;;;;;;;;;;16.50;99.90;;;15.16;95.59;100125.84;3520188;40;103133;-40
2021/08/07 01:29:22;;;;;;;;;;;16.50;99.90;;;15.13;95.96;100127.19;3520430;40;102385;-41
2021/08/07 01:31:57;;;;;;;;;;;16.40;99.90;;;15.08;96.04;100119.72;3520068;40;105838;-40
2021/08/07 01:34:34;;;;;;;;;;;16.40;99.90;;;15.08;95.28;100122.47;3519983;40;102432;-40
2021/08/07 01:37:02;;;;;;;;;;;16.40;99.90;;;15.02;95.47;100126.25;3520043;40;105593;-42
2021/08/07 01:39:54;;;;;;;;;;;16.30;99.90;;;14.98;95.61;100132.50;3519036;40;102657;-40
2021/08/07 01:42:28;;;;;;;;;;;16.30;99.90;;;14.95;95.91;100125.63;3520140;40;104035;-40
2021/08/07 01:44:59;;;;;;;;;;;16.20;99.90;;;14.92;95.97;100126.16;3520888;39;103663;-40
2021/08/07 01:47:55;;;;;;;;;;;16.20;99.90;;;14.92;96.09;100134.41;3520001;40;102368;-40
2021/08/07 01:50:33;;;;;;;;;;;16.20;99.90;;;14.89;96.16;100129.44;3516210;39;102819;-40
2021/08/07 01:53:03;;;;;;;;;;;16.20;99.90;;;14.88;95.87;100131.31;3521125;40;103041;-40
2021/08/07 01:55:47;;;;;;;;;;;16.20;99.90;;;14.83;95.67;100125.78;3520142;40;103844;-40
2021/08/07 01:58:24;;;;;;;;;;;16.10;99.90;;;14.76;95.43;100125.97;3521031;39;103915;-40
2021/08/07 02:00:53;;;;;;;;;;;16.10;99.90;;;14.71;95.31;100114.94;3520011;40;102890;-40
2021/08/07 02:03:33;;;;;;;;;;;16.00;99.90;;;14.63;95.27;100129.09;3520108;40;102425;-41
2021/08/07 02:06:01;;;;;;;;;;;16.00;99.90;;;14.56;95.08;100123.81;3519659;40;102770;-40
2021/08/07 02:08:30;;;;;;;;;;;15.90;99.90;;;14.49;95.04;100125.94;3519945;40;103480;-40
2021/08/07 02:10:59;;;;;;;;;;;15.80;99.90;;;14.41;95.02;100120.88;3519884;40;102368;-40
2021/08/07 02:13:27;;;;;;;;;;;15.80;99.90;;;14.33;94.89;100131.22;3519820;40;103104;-40
2021/08/07 02:16:03;;;;;;;;;;;15.70;99.90;;;14.25;94.71;100117.94;3519809;40;102820;-40
2021/08/07 02:18:33;;;;;;;;;;;15.60;99.90;;;14.19;94.95;100116.19;3519978;40;103082;-40
2021/08/07 02:21:02;;;;;;;;;;;15.60;99.90;;;14.13;94.99;100115.31;3652209;22;103816;-41
2021/08/07 02:23:36;;;;;;;;;;;15.50;99.90;;;14.07;94.88;100117.16;3521581;39;105209;-39
2021/08/07 02:26:07;;;;;;;;;;;15.40;99.90;;;14.02;94.91;100114.34;3521269;39;102815;-39
2021/08/07 02:28:43;;;;;;;;;;;15.40;99.90;;;13.99;94.56;100103.88;3521170;39;103168;-40
2021/08/07 02:31:13;;;;;;;;;;;15.40;99.90;;;13.95;94.39;100113.69;3521049;39;104124;-41
2021/08/07 02:33:45;;;;;;;;;;;15.30;99.90;;;13.91;94.22;100110.63;3521878;39;104470;-39
2021/08/07 02:36:15;;;;;;;;;;;15.30;99.90;;;13.87;94.52;100112.22;3521516;39;102656;-39
2021/08/07 02:38:48;;;;;;;;;;;15.30;99.90;;;13.89;95.04;100114.69;3521574;39;103066;-39
2021/08/07 02:41:17;;;;;;;;;;;15.20;99.90;;;13.88;95.33;100110.28;3530320;39;103128;-39
2021/08/07 02:43:47;;;;;;;;;;;15.20;99.90;;;13.87;95.74;100112.22;3521721;39;102239;-39
2021/08/07 02:46:18;;;;;;;;;;;15.20;99.90;;;13.87;96.24;100095.75;3521361;39;102457;-39
2021/08/07 02:48:50;;;;;;;;;;;15.20;99.90;;;13.90;96.63;100099.91;3521519;39;102195;-39
2021/08/07 02:51:19;;;;;;;;;;;15.20;99.90;;;13.91;97.04;100101.56;3521724;39;103308;-39
2021/08/07 02:53:52;;;;;;;;;;;15.20;99.90;;;13.93;97.38;100093.94;3521340;39;104049;-39
2021/08/07 02:56:20;;;;;;;;;;;15.30;99.90;;;13.93;97.27;100100.22;3521318;39;102553;-40
2021/08/07 02:58:48;;;;;;;;;;;15.30;99.90;;;13.93;97.42;100094.75;3521237;39;103134;-40
2021/08/07 03:01:17;;;;;;;;;;;15.30;99.90;;;13.95;97.45;100087.09;3521020;39;102486;-39
2021/08/07 03:03:50;;;;;;;;;;;15.30;99.90;;;13.97;97.23;100086.00;3521658;39;103064;-39
2021/08/07 03:06:19;;;;;;;;;;;15.30;99.90;;;13.96;97.51;100082.44;3521421;39;104234;-40
2021/08/07 03:08:46;;;;;;;;;;;15.30;99.90;;;14.02;97.73;100088.81;3521152;39;103342;-41
2021/08/07 03:11:14;;;;;;;;;;;15.40;99.90;;;14.03;97.69;100091.31;3521354;39;102513;-39
2021/08/07 03:13:44;;;;;;;;;;;15.40;99.90;;;14.04;97.75;100086.66;3521278;39;102351;-40
2021/08/07 03:16:12;;;;;;;;;;;15.40;99.90;;;14.01;97.30;100076.19;3521201;39;103082;-39
2021/08/07 03:18:43;;;;;;;;;;;15.30;99.90;;;13.99;96.99;100070.97;3530239;39;104823;-39
2021/08/07 03:21:12;;;;;;;;;;;15.30;99.90;;;13.96;96.92;100079.72;3521253;39;102198;-39
2021/08/07 03:23:48;;;;;;;;;;;15.30;99.90;;;13.96;96.84;100076.97;3530383;39;104108;-41
2021/08/07 03:26:15;;;;;;;;;;;15.30;99.90;;;13.92;96.84;100082.13;3529972;39;102828;-40
2021/08/07 03:28:43;;;;;;;;;;;15.30;99.90;;;13.90;96.87;100080.69;3521281;39;102299;-40
2021/08/07 03:31:14;;;;;;;;;;;15.30;99.90;;;13.86;97.20;100077.66;3520987;39;103525;-39
2021/08/07 03:33:42;;;;;;;;;;;15.30;99.90;;;13.82;97.02;100079.25;3521333;39;103327;-40
2021/08/07 03:36:11;;;;;;;;;;;15.20;99.90;;;13.87;97.14;100082.06;3521294;39;104269;-41
2021/08/07 03:38:41;;;;;;;;;;;15.20;99.90;;;13.89;97.19;100079.88;3520988;39;103987;-39
2021/08/07 03:41:09;;;;;;;;;;;15.20;99.90;;;13.91;97.34;100082.34;3521193;39;104646;-39
2021/08/07 03:43:36;;;;;;;;;;;15.20;99.90;;;13.93;97.47;100074.75;3530094;39;102127;-44
2021/08/07 03:46:04;;;;;;;;;;;15.20;99.90;;;13.92;97.36;100075.78;3521186;39;102192;-40
2021/08/07 03:48:32;;;;;;;;;;;15.20;99.90;;;13.95;97.63;100070.63;3530286;39;105049;-39
2021/08/07 03:50:59;;;;;;;;;;;15.30;99.90;;;13.95;97.63;100065.16;3530273;39;103838;-39
2021/08/07 03:53:35;;;;;;;;;;;15.30;99.90;;;13.98;97.21;100057.50;3521249;39;104007;-39
2021/08/07 03:56:03;;;;;;;;;;;15.30;99.90;;;13.95;97.06;100045.97;3530624;39;102769;-39
2021/08/07 03:58:31;;;;;;;;;;;15.30;99.90;;;13.96;97.09;100055.03;3521291;39;104292;-39
2021/08/07 04:01:12;;;;;;;;;;;15.30;99.90;;;13.95;97.00;100054.19;3520916;39;102679;-39
2021/08/07 04:03:40;;;;;;;;;;;15.30;99.90;;;13.95;97.04;100051.44;3521074;39;103082;-39
2021/08/07 04:06:29;;;;;;;;;;;15.30;99.90;;;13.93;96.63;100048.13;3521195;39;102887;-39
2021/08/07 04:08:59;;;;;;;;;;;15.30;99.90;;;13.93;96.71;100047.31;3530125;39;103959;-41
2021/08/07 04:11:29;;;;;;;;;;;15.30;99.90;;;13.99;96.29;100040.81;3520962;39;102396;-42
2021/08/07 04:14:01;;;;;;;;;;;15.30;99.90;;;14.02;96.53;100045.78;3529982;39;102851;-41
2021/08/07 04:16:29;;;;;;;;;;;15.30;99.90;;;14.03;96.55;100046.59;3530506;39;102686;-39
2021/08/07 04:19:03;;;;;;;;;;;15.40;99.90;;;14.04;96.42;100045.50;3520191;39;121925;-42
2021/08/07 04:21:31;;;;;;;;;;;15.40;99.90;;;14.07;96.36;100050.50;3530061;39;102409;-39
2021/08/07 04:23:58;;;;;;;;;;;15.40;99.90;;;14.13;96.39;100045.91;3529820;39;103981;-39
2021/08/07 04:26:25;;;;;;;;;;;15.40;99.90;;;14.15;96.39;100051.94;3521024;39;102106;-39
2021/08/07 04:28:53;;;;;;;;;;;15.50;99.90;;;14.18;96.09;100046.78;3520968;39;104165;-39
2021/08/07 04:31:21;;;;;;;;;;;15.50;99.90;;;14.27;95.47;100041.69;3520800;39;102550;-40
2021/08/07 04:33:48;;;;;;;;;;;15.60;99.90;;;14.34;95.53;100041.50;3520969;39;104178;-39
2021/08/07 04:36:16;;;;;;;;;;;15.60;99.90;;;14.33;94.83;100056.31;3520857;39;102203;-39
2021/08/07 04:38:43;;;;;;;;;;;15.60;99.90;;;14.36;95.03;100045.63;3521033;39;102806;-39
2021/08/07 04:41:10;;;;;;;;;;;15.70;99.90;;;14.38;95.11;100045.38;3530296;39;102779;-40
2021/08/07 04:43:38;;;;;;;;;;;15.70;99.90;;;14.39;95.63;100047.84;3530172;39;104125;-40
2021/08/07 04:46:06;;;;;;;;;;;15.70;99.90;;;14.41;95.79;100044.03;3520655;39;105326;-39
2021/08/07 04:48:34;;;;;;;;;;;15.70;99.90;;;14.44;95.66;100052.59;3520961;39;104505;-39
2021/08/07 04:51:07;;;;;;;;;;;15.70;99.90;;;14.46;95.51;100044.91;3520277;39;102416;-39
2021/08/07 04:53:39;;;;;;;;;;;15.70;99.90;;;14.50;95.55;100048.00;3520784;39;103275;-39
2021/08/07 04:56:15;;;;;;;;;;;15.80;99.90;;;14.51;95.81;100046.91;3529582;39;103605;-40
2021/08/07 04:58:42;;;;;;;;;;;15.80;99.90;;;14.53;95.65;100048.28;3520696;39;102495;-39
2021/08/07 05:01:11;;;;;;;;;;;15.80;99.90;;;14.63;94.84;100050.31;3520439;39;102349;-41
2021/08/07 05:03:39;;;;;;;;;;;15.90;99.90;;;14.65;94.39;100044.59;3520660;39;105298;-39
2021/08/07 05:06:10;;;;;;;;;;;15.90;99.90;;;14.67;94.51;100048.69;3520644;39;102375;-39
2021/08/07 05:08:38;;;;;;;;;;;15.90;99.90;;;14.72;94.33;100045.22;3520614;39;103129;-39
2021/08/07 05:11:06;;;;;;;;;;;16.00;99.90;;;14.73;94.70;100052.38;3520435;39;104025;-39
2021/08/07 05:13:33;;;;;;;;;;;16.00;99.90;;;14.78;94.55;100048.84;3529705;39;102300;-39
2021/08/07 05:16:02;;;;;;;;;;;16.00;99.90;;;14.78;94.02;100044.19;3520587;39;102263;-41
2021/08/07 05:18:30;;;;;;;;;;;16.00;99.90;;;14.82;94.59;100050.00;3530007;39;102231;-39
2021/08/07 05:20:59;;;;;;;;;;;16.10;99.90;;;14.81;94.49;100060.13;3520406;39;102622;-39
2021/08/07 05:23:27;;;;;;;;;;;16.10;99.90;;;14.81;94.43;100038.16;3520628;39;105268;-39
2021/08/07 05:25:54;;;;;;;;;;;16.10;99.90;;;14.81;94.22;100051.06;3520379;39;102674;-42
2021/08/07 05:28:21;;;;;;;;;;;16.00;99.90;;;14.84;94.09;100052.47;3529572;39;104283;-39
2021/08/07 05:30:49;;;;;;;;;;;16.10;99.90;;;14.93;93.20;100045.44;3520773;39;103474;-40
2021/08/07 05:33:16;;;;;;;;;;;16.10;99.90;;;14.97;93.32;100049.31;3530125;39;104030;-39
2021/08/07 05:35:44;;;;;;;;;;;16.20;99.90;;;14.98;93.05;100048.22;3529449;39;102317;-40
2021/08/07 05:38:13;;;;;;;;;;;16.20;99.90;;;15.02;92.89;100030.13;3529869;39;103904;-40
2021/08/07 05:40:40;;;;;;;;;;;16.30;99.90;;;15.07;92.82;100046.63;3520176;39;104788;-39
2021/08/07 05:43:07;;;;;;;;;;;16.30;99.90;;;15.13;92.25;100054.94;3520242;39;103391;-39
2021/08/07 05:45:35;;;;;;;;;;;16.30;99.90;;;15.20;92.20;100041.81;3520216;39;103999;-39
2021/08/07 05:48:02;;;;;;;;;;;16.40;99.90;;;15.18;91.63;100041.25;3529567;39;102143;-40
2021/08/07 05:50:34;;;;;;;;;;;16.40;99.90;;;15.16;91.36;100040.69;3520401;39;102263;-42
2021/08/07 05:53:03;;;;;;;;;;;16.40;99.90;;;15.16;91.47;100037.94;3520112;39;105807;-39
2021/08/07 05:55:31;;;;;;;;;;;16.40;99.90;;;15.21;90.93;100037.97;3520120;39;102490;-40
2021/08/07 05:58:00;;;;;;;;;;;16.40;99.90;;;15.21;90.41;100033.28;3520248;39;102659;-39
2021/08/07 06:00:27;;;;;;;;;;;16.40;99.90;;;15.22;90.63;100031.38;3529440;39;102885;-40
2021/08/07 06:02:55;;;;;;;;;;;16.40;99.90;;;15.21;90.52;100029.72;3530524;39;102414;-39
2021/08/07 06:05:30;;;;;;;;;;;16.40;99.90;;;15.22;90.51;100028.63;3521653;39;102378;-43
2021/08/07 06:08:02;;;;;;;;;;;16.40;99.90;;;15.26;91.11;100029.75;3521781;39;103113;-40
2021/08/07 06:10:30;;;;;;;;;;;16.40;99.90;;;15.32;91.34;100031.44;3521586;39;103017;-40
2021/08/07 06:12:58;;;;;;;;;;;16.50;99.90;;;15.43;90.81;100031.53;3521610;39;103116;-39
2021/08/07 06:15:26;;;;;;;;;;;16.60;99.90;;;15.55;91.21;100037.66;3530478;39;102559;-39
2021/08/07 06:17:56;;;;;;;;;;;16.70;99.90;;;15.66;91.70;100042.13;3530665;39;104031;-40
2021/08/07 06:20:25;;;;;;;;;;;16.70;99.90;;;15.75;90.47;100033.38;3530845;39;102655;-40
2021/08/07 06:22:54;;;;;;;;;;;16.80;99.90;;;15.85;90.21;100030.66;3530956;39;103200;-39
2021/08/07 06:25:22;;;;;;;;;;;16.90;99.90;;;15.92;89.76;100031.31;3521232;39;102328;-39
2021/08/07 06:27:54;;;;;;;;;;;17.00;99.90;;;15.96;89.52;100031.56;3521655;39;105199;-39
2021/08/07 06:30:25;;;;;;;;;;;17.10;99.90;;;15.99;88.93;100035.72;3530977;39;102824;-39
2021/08/07 06:32:53;;;;;;;;;;;17.10;99.90;;;16.05;88.42;100027.25;3521516;39;104000;-40
2021/08/07 06:35:22;;;;;;;;;;;17.20;99.90;;;16.13;87.62;100028.63;3521418;39;102525;-38
2021/08/07 06:37:49;;;;;;;;;;;17.20;99.90;;;16.27;88.99;100028.94;3521261;39;104061;-39
2021/08/07 06:40:17;;;;;;;;;;;17.30;99.90;;;16.30;86.34;100027.59;3521275;39;102777;-38
2021/08/07 06:42:44;;;;;;;;;;;17.30;99.90;;;16.41;86.72;100033.94;3521559;39;104019;-39
2021/08/07 06:45:34;;;;;;;;;;;17.40;99.90;;;16.47;86.25;100032.84;3521391;39;103661;-39
2021/08/07 06:48:09;;;;;;;;;;;17.50;99.90;;;16.52;86.05;100038.38;3521610;39;102917;-39
2021/08/07 06:50:37;;;;;;;;;;;17.60;99.90;;;16.52;85.54;100041.97;3521596;39;102300;-40
2021/08/07 06:53:05;;;;;;;;;;;17.60;99.90;;;16.63;86.19;100040.06;3521418;39;104185;-40
2021/08/07 06:55:32;;;;;;;;;;;17.70;99.90;;;16.67;84.74;100035.66;3521450;39;102223;-39
2021/08/07 06:57:59;;;;;;;;;;;17.70;99.90;;;16.74;85.01;100038.16;3530465;39;105869;-40
2021/08/07 07:00:27;;;;;;;;;;;17.80;99.90;;;16.81;83.80;100038.72;3521421;39;104045;-39
2021/08/07 07:02:55;;;;;;;;;;;17.80;99.90;;;16.85;84.07;100043.66;3521152;39;106172;-39
2021/08/07 07:05:23;;;;;;;;;;;17.90;99.90;;;16.84;82.75;100037.31;3521416;39;102229;-39
2021/08/07 07:07:50;;;;;;;;;;;17.90;99.90;;;16.93;82.76;100032.09;3521609;39;104334;-39
2021/08/07 07:10:18;;;;;;;;;;;18.00;99.90;;;17.13;82.90;100030.50;3531255;39;102342;-40
2021/08/07 07:12:45;;;;;;;;;;;18.10;99.90;;;17.35;84.79;100032.94;3521438;39;104226;-40
2021/08/07 07:15:15;;;;;;;;;;;18.30;99.90;;;17.48;80.57;100032.41;3521235;39;102222;-39
2021/08/07 07:17:43;;;;;;;;;;;18.40;99.90;;;17.56;79.49;100030.16;3530610;39;102257;-39
2021/08/07 07:20:11;;;;;;;;;;;18.40;99.90;;;17.64;79.82;100038.69;3530315;39;102650;-40
2021/08/07 07:22:39;;;;;;;;;;;18.60;99.90;;;17.53;77.54;100031.56;3530577;39;103234;-39
2021/08/07 07:25:10;;;;;;;;;;;18.50;99.90;;;17.58;77.54;100027.94;3521200;39;103039;-40
2021/08/07 07:27:38;;;;;;;;;;;18.60;99.90;;;17.59;79.39;100024.09;3513666;39;103148;-40
2021/08/07 07:30:06;;;;;;;;;;;18.60;99.90;;;17.67;80.95;100031.81;3513530;39;102479;-40
2021/08/07 07:32:34;;;;;;;;;;;18.70;99.90;;;17.68;80.50;100034.28;3530972;39;103933;-40
2021/08/07 07:35:03;;;;;;;;;;;18.70;99.90;;;17.77;80.35;100025.41;3521291;39;102398;-39
2021/08/07 07:37:30;;;;;;;;;;;18.70;99.90;;;17.80;79.46;100030.41;3530290;39;103980;-40
2021/08/07 07:39:58;;;;;;;;;;;18.80;99.90;;;17.91;79.37;100034.78;3521382;39;102997;-40
2021/08/07 07:42:25;;;;;;;;;;;18.80;99.90;;;18.00;79.25;100023.13;3530528;39;102315;-40
2021/08/07 07:44:54;;;;;;;;;;;18.90;99.90;;;18.07;78.22;100024.53;3521028;39;102555;-39
2021/08/07 07:47:22;;;;;;;;;;;19.00;99.90;;;18.22;77.85;100031.09;3521475;39;104093;-38
2021/08/07 07:49:50;;;;;;;;;;;19.10;99.90;;;18.25;77.53;100023.06;3530881;39;102294;-38
2021/08/07 07:52:19;;;;;;;;;;;19.20;99.90;;;18.27;74.92;100033.84;3521246;39;103223;-41
2021/08/07 07:54:47;;;;;;;;;;;19.20;99.90;;;18.38;75.67;100029.09;3521207;39;102191;-39
2021/08/07 07:57:15;;;;;;;;;;;19.30;99.90;;;18.38;75.41;100034.59;3530704;39;104055;-39
2021/08/07 07:59:42;;;;;;;;;;;19.30;99.90;;;18.51;75.82;100030.41;3530732;39;102311;-40
2021/08/07 08:02:09;;;;;;;;;;;19.40;99.90;;;18.66;76.64;100029.47;3530367;39;103118;-39
2021/08/07 08:04:37;;;;;;;;;;;19.50;99.90;;;18.66;73.75;100041.31;3521293;39;102265;-40
2021/08/07 08:07:05;;;;;;;;;;;19.60;99.90;;;18.79;73.57;100037.09;3521245;39;104117;-40
2021/08/07 08:09:33;;;;;;;;;;;19.60;99.90;;;18.85;72.75;100031.56;3521457;39;102517;-40
2021/08/07 08:12:01;;;;;;;;;;;19.70;99.90;;;19.00;74.15;100027.88;3521859;39;104493;-40
2021/08/07 08:14:29;;;;;;;;;;;19.80;99.90;;;19.14;74.87;100023.31;3530245;39;102657;-40
2021/08/07 08:16:56;;;;;;;;;;;19.90;99.90;;;19.25;73.04;100018.53;3521377;39;102345;-39
2021/08/07 08:19:25;;;;;;;;;;;20.10;99.90;;;19.34;71.50;100027.84;3636677;22;102149;31
2021/08/07 08:21:53;;;;;;;;;;;20.10;99.90;;;19.50;71.71;100017.47;3518419;40;103325;-40
2021/08/07 08:24:25;;;;;;;;;;;20.30;99.90;;;19.60;71.51;100018.47;3509098;40;102587;-40
2021/08/07 08:26:52;;;;;;;;;;;20.40;99.90;;;19.69;69.96;100017.53;3509847;40;105410;-40
2021/08/07 08:29:20;;;;;;;;;;;20.40;99.90;;;19.89;71.76;100014.84;3510195;40;102225;-40
2021/08/07 08:31:47;;;;;;;;;;;20.60;99.90;;;20.02;69.92;100002.25;3509975;40;104463;-40
2021/08/07 08:34:15;;;;;;;;;;;20.70;99.90;;;20.13;69.71;100003.75;3509331;40;102606;-40
2021/08/07 08:36:42;;;;;;;;;;;20.80;99.90;;;20.23;68.73;100003.63;3509787;40;104001;-41
2021/08/07 08:39:09;;;;;;;;;;;20.90;99.90;;;20.30;70.07;99997.75;3510284;40;102422;-41
2021/08/07 08:41:37;;;;;;;;;;;21.10;99.90;;;20.32;65.72;99997.41;3501125;40;103258;-41
2021/08/07 08:44:05;;;;;;;;;;;21.10;99.90;;;20.38;69.32;99987.91;3509308;40;102983;-40
2021/08/07 08:46:35;;;;;;;;;;;21.20;99.90;;;20.46;69.71;99991.97;3510159;40;102253;-40
2021/08/07 08:49:04;;;;;;;;;;;21.20;99.90;;;20.48;67.76;99982.25;3501195;40;102274;-41
2021/08/07 08:51:32;;;;;;;;;;;21.30;99.90;;;20.58;65.87;99974.88;3510027;40;105259;-40
2021/08/07 08:54:02;;;;;;;;;;;21.40;99.90;;;20.78;67.56;99980.13;3510792;40;102065;-40
2021/08/07 08:56:34;;;;;;;;;;;21.50;99.90;;;21.01;65.77;99972.00;3509495;40;103068;-41
2021/08/07 08:59:03;;;;;;;;;;;21.70;99.90;;;21.14;65.91;99987.03;3501076;40;104701;-39
2021/08/07 09:01:32;;;;;;;;;;;21.90;99.90;;;21.16;65.94;99976.47;3500728;40;103139;-40
2021/08/07 09:04:03;;;;;;;;;;;21.90;99.90;;;21.18;66.62;99985.28;3510172;40;102279;-40
2021/08/07 09:06:32;;;;;;;;;;;21.90;99.90;;;21.14;64.76;99984.25;3509229;40;104088;-41
2021/08/07 09:09:05;;;;;;;;;;;21.90;99.90;;;20.96;64.56;99975.69;3501228;40;102282;-41
2021/08/07 09:11:33;;;;;;;;;;;21.90;99.90;;;21.15;66.32;99971.22;3500878;40;103118;-41
2021/08/07 09:14:41;;;;;;;;;;;21.90;99.90;;;21.27;65.62;99972.38;3509041;40;102560;-41
2021/08/07 09:17:18;;;;;;;;;;;22.00;99.90;;;21.37;66.31;99973.31;3501074;40;103109;-41
2021/08/07 09:19:57;;;;;;;;;;;22.10;99.90;;;21.30;62.73;99970.94;3508742;40;102159;-40
2021/08/07 09:22:28;;;;;;;;;;;22.10;99.90;;;21.48;64.91;99973.91;3500623;40;102390;-40
2021/08/07 09:25:07;;;;;;;;;;;22.20;99.90;;;21.61;63.48;99972.28;3500785;40;102975;-41
2021/08/07 09:27:41;;;;;;;;;;;22.40;99.90;;;21.55;61.30;99977.13;3509238;40;102611;-41
2021/08/07 09:30:18;;;;;;;;;;;22.40;99.90;;;21.51;60.75;99978.88;3501145;40;103363;-42
2021/08/07 09:33:04;;;;;;;;;;;22.40;99.90;;;21.39;58.31;99969.09;3500813;40;103192;-40
2021/08/07 09:35:45;;;;;;;;;;;22.30;99.90;;;21.56;61.10;99973.22;3500570;40;102240;-40
2021/08/07 09:38:20;;;;;;;;;;;22.40;99.90;;;21.69;60.74;99966.06;3510871;40;102272;-41
2021/08/07 09:40:54;;;;;;;;;;;22.50;99.90;;;21.77;57.46;99964.53;3502126;40;102427;-41
2021/08/07 09:43:25;;;;;;;;;;;22.50;99.90;;;22.02;58.12;99960.38;3510191;40;104277;-41
2021/08/07 09:45:58;;;;;;;;;;;22.70;99.90;;;22.18;56.96;99960.06;3501780;40;102811;-40
2021/08/07 09:48:48;;;;;;;;;;;22.90;99.90;;;22.25;54.87;99964.03;3502061;40;103081;-40
2021/08/07 09:51:30;;;;;;;;;;;23.00;99.90;;;22.42;56.92;99957.00;3510083;40;102941;-41
2021/08/07 09:54:18;;;;;;;;;;;23.10;99.90;;;22.66;54.71;99962.28;3502029;40;103313;-40
2021/08/07 09:56:55;;;;;;;;;;;23.30;99.90;;;22.74;54.60;99960.69;3502359;40;102577;-41
2021/08/07 09:59:33;;;;;;;;;;;23.40;99.90;;;22.87;54.26;99960.97;3510250;40;102396;-40
2021/08/07 10:02:32;;;;;;;;;;;23.50;99.90;;;22.67;55.43;99957.56;3511001;40;102665;-41
2021/08/07 10:05:11;;;;;;;;;;;23.50;99.90;;;22.34;54.43;99971.63;3510069;40;102259;-39
2021/08/07 10:08:00;;;;;;;;;;;23.30;99.90;;;21.92;56.56;99966.97;3510257;40;102879;-41
2021/08/07 10:10:35;;;;;;;;;;;23.00;99.90;;;21.90;58.04;99972.00;3510031;40;103067;-40
2021/08/07 10:13:07;;;;;;;;;;;22.80;99.90;;;21.71;56.42;99966.59;3511375;40;102797;-40
2021/08/07 10:15:46;;;;;;;;;;;22.70;99.90;;;21.44;56.01;99970.13;3494488;40;104011;-40
2021/08/07 10:18:13;;;;;;;;;;;22.50;99.90;;;21.33;55.07;99962.00;3510628;40;103087;-40
2021/08/07 10:20:43;;;;;;;;;;;22.40;99.90;;;21.30;57.47;99957.06;3502081;40;105510;-39
2021/08/07 10:23:12;;;;;;;;;;;22.30;99.90;;;21.34;58.66;99952.56;3502281;40;102176;-41
2021/08/07 10:25:44;;;;;;;;;;;22.20;99.90;;;21.53;60.03;99946.09;3511059;40;104699;-40
2021/08/07 10:28:17;;;;;;;;;;;22.40;99.90;;;21.92;58.30;99947.53;3510934;40;102173;-41
2021/08/07 10:30:45;;;;;;;;;;;22.60;99.90;;;22.20;54.68;99935.56;3510799;40;102287;-41
2021/08/07 10:33:15;;;;;;;;;;;22.90;99.90;;;22.34;55.95;99929.97;3502219;40;102551;-41
2021/08/07 10:35:44;;;;;;;;;;;23.10;99.90;;;22.62;57.07;99921.53;3510758;40;102289;-40
2021/08/07 10:38:13;;;;;;;;;;;23.20;99.90;;;22.88;51.24;99916.16;3502213;40;102437;-41
2021/08/07 10:40:41;;;;;;;;;;;23.50;99.90;;;23.04;51.94;99911.00;3511126;40;104222;-40
2021/08/07 10:43:10;;;;;;;;;;;23.70;99.90;;;23.18;51.91;99916.47;3501828;40;102947;-41
2021/08/07 10:45:44;;;;;;;;;;;23.80;99.90;;;23.57;54.43;99916.81;3510719;40;103191;-39
2021/08/07 10:48:37;;;;;;;;;;;24.10;99.90;;;23.83;50.69;99904.91;3509641;40;102252;-39
2021/08/07 10:51:18;;;;;;;;;;;24.40;99.90;;;24.03;51.43;99900.75;3501976;40;103255;-39
2021/08/07 10:53:47;;;;;;;;;;;24.60;99.90;;;23.94;49.80;99889.56;3510628;40;102410;-41
2021/08/07 10:56:26;;;;;;;;;;;24.60;99.90;;;23.56;51.11;99888.16;3510869;40;103098;-40
2021/08/07 10:59:09;;;;;;;;;;;24.50;99.90;;;23.50;51.92;99891.41;3510922;40;102156;-41
2021/08/07 11:01:43;;;;;;;;;;;24.40;99.90;;;23.32;51.84;99888.56;3510809;40;102258;-39
2021/08/07 11:04:18;;;;;;;;;;;24.20;99.90;;;23.23;52.18;99891.31;3511371;40;102445;-41
2021/08/07 11:06:48;;;;;;;;;;;24.10;99.90;;;23.09;50.84;99885.84;3510896;40;104004;-39
2021/08/07 11:09:15;;;;;;;;;;;24.00;99.90;;;22.95;55.46;99888.72;3511025;40;102154;-41
2021/08/07 11:11:43;;;;;;;;;;;23.90;99.90;;;22.79;51.54;99891.06;3510752;40;103151;-39
2021/08/07 11:14:25;;;;;;;;;;;23.80;99.90;;;22.75;54.10;99892.03;3510540;40;102223;-41
2021/08/07 11:17:07;;;;;;;;;;;23.70;99.90;;;22.67;54.56;99888.06;3510851;40;103148;-40
2021/08/07 11:19:48;;;;;;;;;;;23.60;99.90;;;22.63;55.74;99898.97;3510999;40;102668;-41
2021/08/07 11:22:31;;;;;;;;;;;23.60;99.90;;;22.55;54.37;99897.81;3510558;40;103326;-42